Oakland County International Airport
KPTK : now visible

Airfield :











YOU CAN JOIN US ON...

 
LOGIN :

Register | Disclaimer

   EN    FR    IT 

 









Legend :    VFR   Marginal VFR   IFR   Intensive IFR   Very Intensive IFR
Visi :
Ceiling :
>= 8 km
>= 3000ft
5 to 8 km
1000 to 3000 ft
1500m to 5 km
500 to 1000 ft
800 to 1500m
200 to 500 ft
< 800m
< 200 ft
Symbols :   Thunderstorms  Fog  Heavy snow  Heavy precipitations  Wind > 20 kt






- Airport Elevation : 980 ft


KPTK - Oakland County International

CURRENT METAR :
  • 280353Z 27011KT 4SM -RA BR OVC008 14/12 A2975 RMK AO2 CIG 005V013 SLP071 LAST P0003 T01390122

EXPIRED METARs :
  • 280253Z 25008KT 5SM -RA BR OVC009 14/12 A2974 RMK AO2 DZE22RAB30 SLP070 P0001 60001 T01390122 53026
  • 280228Z COR 27011KT 6SM BR OVC009 14/12 A2973 RMK AO2 DZE22 P0000 T01440122
  • 280153Z 27011G18KT 4SM -DZ OVC011 14/12 A2972 RMK AO2 DZB41 SLP060 P0000 T01440122
  • 280053Z 26013KT 10SM OVC015 16/12 A2968 RMK AO2 SLP046 T01560117
  • 280104Z 28012KT 10SM OVC014 16/12 A2968 RMK AO2 T01560117
  • 272353Z 27011G21KT 10SM OVC016 16/11 A2967 RMK AO2 PK WND 27029/2313 SLP043 60001 T01560111 10172 20156 51021

TAF KPTK
Valid from the 28 at 03:00 until the 29 at 00:00 UTC


280257Z 2803/2824 27014KT 5SM -DZ OVC008
FM280900 28010KT P6SM SCT009 OVC012
FM281300 29010KT P6SM SCT022 OVC035
FM281800 31010KT P6SM BKN050 OVC100
PROB30 2819/2823 4SM -SHRA BR OVC012
KZOB FIR / North America



MET'MAP, your aeronautical weather chart ! - Copyright ORBIFLY December 2007 - Disclaimer

ORBIFLY MET'MAP TEAM :

Programming & Development : Alexandra Zaïnal
Original concept : Baudouin d'Aumeries
Technical & hardware support : Manuel Goepfert
Assistance : Marc-Olivier Méhu




SOURCES & CREDITS :

   NOAA       Earth
Advisory